Terminal Aerodrome Forecast
Issued by NWS Duluth, MN

Home | Current Version | Previous Version | Text Only | Print | Product List | Glossary On
Versions: 1 2 3 4 5 6 7 8 9 10 11 12 13 14 15 16 17 18 19 20 21 22 23
000
FTUS43 KDLH 292000 AAC
TAFINL
TAF AMD
KINL 292036Z 2921/3018 13008KT P6SM VCSH OVC025
      TEMPO 2922/3002 5SM TSRA BKN015CB OVC035
     FM300300 35004KT 2SM BR OVC010
     FM300600 VRB03KT 4SM BR BKN012
     FM301200 01005KT P6SM BKN005
     FM301500 04005KT P6SM BKN015=

USA.gov is the U.S. government's official web portal to all federal, state and local government web resources and services.